Terminal Aerodrome Forecast
Issued by NWS

Home | Current Version | Previous Version | Text Only | Print | Product List | Glossary On
Versions: 1 2 3 4 5 6 7 8 9 10 11 12 13 14 15 16 17 18 19 20 21 22 23 24 25 26 27 28 29 30 31 32
111
FTUS41 KRNK 261725
TAFLWB
TAF
KLWB 261725Z 2618/2718 25005KT P6SM SCT040 BKN100
     FM261900 25007KT P6SM VCTS BKN040CB
     FM270200 25005KT 5SM BR BKN050 OVC150
     FM270500 00000KT 2SM BR SCT002 OVC050
      TEMPO 2708/2712 1/4SM FG VV001
     FM271400 VRB04KT P6SM SCT012 OVC030=

USA.gov is the U.S. government's official web portal to all federal, state and local government web resources and services.